sensor_id;sensor_type;location;lat;lon;timestamp;pressure;altitude;pressure_sealevel;temperature;humidity
75650;BME280;64245;51.282;22.494;2022-12-24T00:00:18;98315.16;;;2.63;99.81
75650;BME280;64245;51.282;22.494;2022-12-24T00:03:04;98314.06;;;2.54;99.92
75650;BME280;64245;51.282;22.494;2022-12-24T00:05:30;98306.69;;;2.47;100.00
75650;BME280;64245;51.282;22.494;2022-12-24T00:07:55;98312.47;;;2.40;99.66
75650;BME280;64245;51.282;22.494;2022-12-24T00:10:21;98314.25;;;2.29;99.68
75650;BME280;64245;51.282;22.494;2022-12-24T00:12:46;98315.84;;;2.42;99.82
75650;BME280;64245;51.282;22.494;2022-12-24T00:15:12;98297.34;;;2.30;100.00
75650;BME280;64245;51.282;22.494;2022-12-24T00:17:38;98303.03;;;2.36;100.00
75650;BME280;64245;51.282;22.494;2022-12-24T00:20:04;98317.66;;;2.42;100.00
75650;BME280;64245;51.282;22.494;2022-12-24T00:22:30;98316.47;;;2.46;100.00
75650;BME280;64245;51.282;22.494;2022-12-24T00:24:55;98302.06;;;2.37;100.00
75650;BME280;64245;51.282;22.494;2022-12-24T00:27:21;98305.94;;;2.45;100.00
75650;BME280;64245;51.282;22.494;2022-12-24T00:29:47;98292.13;;;2.17;99.91
75650;BME280;64245;51.282;22.494;2022-12-24T00:32:12;98290.06;;;2.21;100.00
75650;BME280;64245;51.282;22.494;2022-12-24T00:34:39;98295.66;;;2.29;100.00
75650;BME280;64245;51.282;22.494;2022-12-24T00:37:05;98276.06;;;2.19;100.00
75650;BME280;64245;51.282;22.494;2022-12-24T00:39:31;98305.72;;;2.48;100.00
75650;BME280;64245;51.282;22.494;2022-12-24T00:41:57;98291.09;;;2.42;99.85
75650;BME280;64245;51.282;22.494;2022-12-24T00:44:23;98291.50;;;2.14;99.12
75650;BME280;64245;51.282;22.494;2022-12-24T00:46:49;98282.53;;;1.92;100.00
75650;BME280;64245;51.282;22.494;2022-12-24T00:49:15;98304.19;;;2.21;100.00
75650;BME280;64245;51.282;22.494;2022-12-24T00:51:41;98294.31;;;2.34;100.00
75650;BME280;64245;51.282;22.494;2022-12-24T00:54:07;98281.59;;;2.16;99.73
75650;BME280;64245;51.282;22.494;2022-12-24T00:56:33;98283.63;;;2.01;99.45
75650;BME280;64245;51.282;22.494;2022-12-24T00:58:59;98278.09;;;2.04;100.00
75650;BME280;64245;51.282;22.494;2022-12-24T01:01:25;98276.91;;;2.19;100.00
75650;BME280;64245;51.282;22.494;2022-12-24T01:03:51;98292.94;;;2.06;99.92
75650;BME280;64245;51.282;22.494;2022-12-24T01:06:19;98295.38;;;2.21;100.00
75650;BME280;64245;51.282;22.494;2022-12-24T01:08:48;98293.06;;;2.16;100.00
75650;BME280;64245;51.282;22.494;2022-12-24T01:11:14;98275.16;;;1.96;100.00
75650;BME280;64245;51.282;22.494;2022-12-24T01:13:40;98274.81;;;2.00;100.00
75650;BME280;64245;51.282;22.494;2022-12-24T01:16:20;98263.00;;;2.16;100.00
75650;BME280;64245;51.282;22.494;2022-12-24T01:18:45;98285.50;;;2.34;99.80
75650;BME280;64245;51.282;22.494;2022-12-24T01:21:11;98275.78;;;1.99;99.70
75650;BME280;64245;51.282;22.494;2022-12-24T01:23:37;98265.91;;;2.13;99.48
75650;BME280;64245;51.282;22.494;2022-12-24T01:26:03;98285.84;;;2.18;99.37
75650;BME280;64245;51.282;22.494;2022-12-24T01:28:30;98288.44;;;2.31;99.79
75650;BME280;64245;51.282;22.494;2022-12-24T01:30:56;98281.59;;;2.04;99.76
75650;BME280;64245;51.282;22.494;2022-12-24T01:33:21;98267.47;;;2.04;100.00
75650;BME280;64245;51.282;22.494;2022-12-24T01:35:47;98296.41;;;2.31;100.00
75650;BME280;64245;51.282;22.494;2022-12-24T01:38:13;98286.19;;;2.14;100.00
75650;BME280;64245;51.282;22.494;2022-12-24T01:40:40;98285.59;;;2.10;100.00
75650;BME280;64245;51.282;22.494;2022-12-24T01:43:29;98276.16;;;2.06;100.00
75650;BME280;64245;51.282;22.494;2022-12-24T01:46:01;98298.16;;;2.19;99.89
75650;BME280;64245;51.282;22.494;2022-12-24T01:48:48;98280.63;;;2.05;100.00
75650;BME280;64245;51.282;22.494;2022-12-24T01:51:35;98275.44;;;2.04;100.00
75650;BME280;64245;51.282;22.494;2022-12-24T01:54:04;98255.38;;;2.00;100.00
75650;BME280;64245;51.282;22.494;2022-12-24T01:56:34;98274.59;;;2.15;100.00
75650;BME280;64245;51.282;22.494;2022-12-24T01:59:04;98257.94;;;2.13;100.00
75650;BME280;64245;51.282;22.494;2022-12-24T02:01:30;98254.34;;;2.36;99.27
75650;BME280;64245;51.282;22.494;2022-12-24T02:03:56;98257.25;;;2.22;97.86
75650;BME280;64245;51.282;22.494;2022-12-24T02:06:22;98254.88;;;1.95;98.44
75650;BME280;64245;51.282;22.494;2022-12-24T02:08:48;98263.63;;;2.08;99.05
75650;BME280;64245;51.282;22.494;2022-12-24T02:11:19;98269.53;;;2.12;99.64
75650;BME280;64245;51.282;22.494;2022-12-24T02:13:54;98251.22;;;2.31;100.00
75650;BME280;64245;51.282;22.494;2022-12-24T02:16:34;98270.41;;;2.34;100.00
75650;BME280;64245;51.282;22.494;2022-12-24T02:27:41;98260.91;;;2.54;100.00
75650;BME280;64245;51.282;22.494;2022-12-24T02:30:15;98268.41;;;2.60;100.00
75650;BME280;64245;51.282;22.494;2022-12-24T02:32:53;98265.47;;;2.52;100.00
75650;BME280;64245;51.282;22.494;2022-12-24T02:38:11;98260.88;;;2.32;99.06
75650;BME280;64245;51.282;22.494;2022-12-24T02:40:46;98248.81;;;2.39;99.31
75650;BME280;64245;51.282;22.494;2022-12-24T02:43:19;98234.78;;;2.26;99.05
75650;BME280;64245;51.282;22.494;2022-12-24T02:45:51;98244.69;;;2.24;99.17
75650;BME280;64245;51.282;22.494;2022-12-24T02:48:19;98267.53;;;2.37;99.46
75650;BME280;64245;51.282;22.494;2022-12-24T02:51:01;98253.16;;;2.40;99.99
75650;BME280;64245;51.282;22.494;2022-12-24T02:53:27;98270.78;;;2.41;100.00
75650;BME280;64245;51.282;22.494;2022-12-24T03:01:16;98268.97;;;2.30;100.00
75650;BME280;64245;51.282;22.494;2022-12-24T03:06:43;98260.75;;;2.33;98.99
75650;BME280;64245;51.282;22.494;2022-12-24T03:09:19;98261.38;;;2.37;98.60
75650;BME280;64245;51.282;22.494;2022-12-24T03:11:55;98244.41;;;2.16;99.22
75650;BME280;64245;51.282;22.494;2022-12-24T03:14:24;98261.94;;;2.18;99.65
75650;BME280;64245;51.282;22.494;2022-12-24T03:16:50;98256.03;;;2.26;99.85
75650;BME280;64245;51.282;22.494;2022-12-24T03:19:16;98245.38;;;2.15;99.52
75650;BME280;64245;51.282;22.494;2022-12-24T03:21:42;98260.47;;;2.03;99.61
75650;BME280;64245;51.282;22.494;2022-12-24T03:24:10;98265.56;;;2.17;100.00
75650;BME280;64245;51.282;22.494;2022-12-24T03:26:37;98252.63;;;2.13;100.00
75650;BME280;64245;51.282;22.494;2022-12-24T03:29:05;98271.47;;;2.10;100.00
75650;BME280;64245;51.282;22.494;2022-12-24T03:31:43;98257.56;;;2.06;100.00
75650;BME280;64245;51.282;22.494;2022-12-24T03:34:10;98277.19;;;2.27;100.00
75650;BME280;64245;51.282;22.494;2022-12-24T03:36:36;98280.47;;;2.31;100.00
75650;BME280;64245;51.282;22.494;2022-12-24T03:39:03;98266.50;;;2.16;100.00
75650;BME280;64245;51.282;22.494;2022-12-24T03:41:29;98279.56;;;2.19;100.00
75650;BME280;64245;51.282;22.494;2022-12-24T03:43:55;98279.56;;;2.08;100.00
75650;BME280;64245;51.282;22.494;2022-12-24T03:46:20;98274.91;;;2.45;100.00
75650;BME280;64245;51.282;22.494;2022-12-24T03:48:46;98273.06;;;2.34;99.73
75650;BME280;64245;51.282;22.494;2022-12-24T03:51:22;98273.19;;;2.22;99.80
75650;BME280;64245;51.282;22.494;2022-12-24T03:53:51;98259.09;;;1.97;100.00
75650;BME280;64245;51.282;22.494;2022-12-24T03:56:17;98250.28;;;1.97;99.72
75650;BME280;64245;51.282;22.494;2022-12-24T03:58:42;98233.50;;;1.96;100.00
75650;BME280;64245;51.282;22.494;2022-12-24T04:01:08;98268.09;;;2.07;99.79
75650;BME280;64245;51.282;22.494;2022-12-24T04:03:34;98260.91;;;1.97;100.00
75650;BME280;64245;51.282;22.494;2022-12-24T04:06:06;98241.34;;;1.87;100.00
75650;BME280;64245;51.282;22.494;2022-12-24T04:08:32;98262.38;;;2.01;100.00
75650;BME280;64245;51.282;22.494;2022-12-24T04:10:59;98262.16;;;2.04;100.00
75650;BME280;64245;51.282;22.494;2022-12-24T04:13:24;98261.91;;;2.07;100.00
75650;BME280;64245;51.282;22.494;2022-12-24T04:15:58;98234.88;;;2.02;100.00
75650;BME280;64245;51.282;22.494;2022-12-24T04:18:24;98237.41;;;2.03;99.94
75650;BME280;64245;51.282;22.494;2022-12-24T04:20:50;98266.44;;;2.29;100.00
75650;BME280;64245;51.282;22.494;2022-12-24T04:23:15;98257.53;;;1.95;100.00
75650;BME280;64245;51.282;22.494;2022-12-24T04:25:41;98246.00;;;2.07;100.00
75650;BME280;64245;51.282;22.494;2022-12-24T04:28:07;98253.25;;;2.16;100.00
75650;BME280;64245;51.282;22.494;2022-12-24T04:30:33;98270.00;;;2.17;100.00
75650;BME280;64245;51.282;22.494;2022-12-24T04:32:58;98264.97;;;2.25;100.00
75650;BME280;64245;51.282;22.494;2022-12-24T04:35:24;98264.81;;;2.15;99.96
75650;BME280;64245;51.282;22.494;2022-12-24T04:37:50;98259.59;;;2.02;99.53
75650;BME280;64245;51.282;22.494;2022-12-24T04:40:16;98267.59;;;2.14;100.00
75650;BME280;64245;51.282;22.494;2022-12-24T04:42:41;98258.94;;;2.12;100.00
75650;BME280;64245;51.282;22.494;2022-12-24T04:45:07;98256.28;;;2.12;99.70
75650;BME280;64245;51.282;22.494;2022-12-24T04:47:33;98264.69;;;2.05;99.37
75650;BME280;64245;51.282;22.494;2022-12-24T04:49:59;98257.34;;;2.09;100.00
75650;BME280;64245;51.282;22.494;2022-12-24T04:52:26;98254.53;;;1.99;100.00
75650;BME280;64245;51.282;22.494;2022-12-24T04:54:52;98280.06;;;2.24;99.78
75650;BME280;64245;51.282;22.494;2022-12-24T04:57:18;98270.88;;;2.17;99.76
75650;BME280;64245;51.282;22.494;2022-12-24T04:59:43;98262.66;;;2.09;99.23
75650;BME280;64245;51.282;22.494;2022-12-24T05:02:09;98270.34;;;2.12;98.79
75650;BME280;64245;51.282;22.494;2022-12-24T05:04:35;98259.88;;;2.11;98.47
75650;BME280;64245;51.282;22.494;2022-12-24T05:07:00;98265.44;;;2.07;98.74
75650;BME280;64245;51.282;22.494;2022-12-24T05:09:26;98277.69;;;1.97;99.57
75650;BME280;64245;51.282;22.494;2022-12-24T05:11:52;98281.97;;;2.11;99.52
75650;BME280;64245;51.282;22.494;2022-12-24T05:14:18;98282.94;;;2.10;99.89
75650;BME280;64245;51.282;22.494;2022-12-24T05:16:43;98284.44;;;1.90;100.00
75650;BME280;64245;51.282;22.494;2022-12-24T05:19:09;98285.44;;;2.00;99.99
75650;BME280;64245;51.282;22.494;2022-12-24T05:21:35;98284.66;;;1.87;100.00
75650;BME280;64245;51.282;22.494;2022-12-24T05:24:01;98290.81;;;1.88;100.00
75650;BME280;64245;51.282;22.494;2022-12-24T05:26:48;98264.59;;;1.72;100.00
75650;BME280;64245;51.282;22.494;2022-12-24T05:29:15;98273.16;;;2.11;100.00
75650;BME280;64245;51.282;22.494;2022-12-24T05:31:42;98287.50;;;2.08;100.00
75650;BME280;64245;51.282;22.494;2022-12-24T05:34:08;98275.19;;;2.07;99.82
75650;BME280;64245;51.282;22.494;2022-12-24T05:36:34;98279.78;;;2.05;99.26
75650;BME280;64245;51.282;22.494;2022-12-24T05:39:00;98258.22;;;1.86;99.52
75650;BME280;64245;51.282;22.494;2022-12-24T05:41:26;98280.56;;;1.94;99.90
75650;BME280;64245;51.282;22.494;2022-12-24T05:43:52;98283.72;;;1.88;100.00
75650;BME280;64245;51.282;22.494;2022-12-24T05:46:19;98262.03;;;1.70;100.00
75650;BME280;64245;51.282;22.494;2022-12-24T05:48:47;98276.53;;;1.78;100.00
75650;BME280;64245;51.282;22.494;2022-12-24T05:51:14;98258.84;;;1.89;99.77
75650;BME280;64245;51.282;22.494;2022-12-24T05:53:40;98277.78;;;1.85;99.64
75650;BME280;64245;51.282;22.494;2022-12-24T05:56:11;98273.00;;;1.66;99.44
75650;BME280;64245;51.282;22.494;2022-12-24T05:58:39;98279.97;;;1.91;100.00
75650;BME280;64245;51.282;22.494;2022-12-24T06:01:08;98271.22;;;1.78;100.00
75650;BME280;64245;51.282;22.494;2022-12-24T06:03:35;98270.38;;;1.77;99.98
75650;BME280;64245;51.282;22.494;2022-12-24T06:06:04;98266.31;;;1.60;100.00
75650;BME280;64245;51.282;22.494;2022-12-24T06:08:31;98281.69;;;1.68;100.00
75650;BME280;64245;51.282;22.494;2022-12-24T06:10:58;98274.28;;;1.60;100.00
75650;BME280;64245;51.282;22.494;2022-12-24T06:13:25;98273.44;;;1.84;100.00
75650;BME280;64245;51.282;22.494;2022-12-24T06:15:55;98258.06;;;1.76;100.00
75650;BME280;64245;51.282;22.494;2022-12-24T06:18:21;98262.78;;;1.72;100.00
75650;BME280;64245;51.282;22.494;2022-12-24T06:20:55;98279.72;;;1.94;100.00
75650;BME280;64245;51.282;22.494;2022-12-24T06:23:22;98259.09;;;1.86;100.00
75650;BME280;64245;51.282;22.494;2022-12-24T06:25:48;98268.66;;;2.00;100.00
75650;BME280;64245;51.282;22.494;2022-12-24T06:28:15;98271.22;;;1.78;99.73
75650;BME280;64245;51.282;22.494;2022-12-24T06:30:41;98293.16;;;2.03;100.00
75650;BME280;64245;51.282;22.494;2022-12-24T06:33:06;98268.41;;;1.92;100.00
75650;BME280;64245;51.282;22.494;2022-12-24T06:35:33;98284.63;;;2.11;100.00
75650;BME280;64245;51.282;22.494;2022-12-24T06:37:59;98278.66;;;1.96;99.78
75650;BME280;64245;51.282;22.494;2022-12-24T06:40:25;98290.50;;;1.92;99.80
75650;BME280;64245;51.282;22.494;2022-12-24T06:42:51;98275.00;;;1.86;100.00
75650;BME280;64245;51.282;22.494;2022-12-24T06:45:17;98270.16;;;1.80;100.00
75650;BME280;64245;51.282;22.494;2022-12-24T06:47:43;98279.69;;;1.83;100.00
75650;BME280;64245;51.282;22.494;2022-12-24T06:50:09;98273.41;;;1.72;100.00
75650;BME280;64245;51.282;22.494;2022-12-24T06:52:35;98273.00;;;2.01;100.00
75650;BME280;64245;51.282;22.494;2022-12-24T06:55:01;98289.78;;;2.01;100.00
75650;BME280;64245;51.282;22.494;2022-12-24T06:57:27;98307.59;;;2.23;100.00
75650;BME280;64245;51.282;22.494;2022-12-24T06:59:53;98281.69;;;2.03;99.65
75650;BME280;64245;51.282;22.494;2022-12-24T07:02:18;98293.34;;;2.24;99.32
75650;BME280;64245;51.282;22.494;2022-12-24T07:04:44;98285.66;;;1.97;100.00
75650;BME280;64245;51.282;22.494;2022-12-24T07:07:10;98287.13;;;2.01;99.82
75650;BME280;64245;51.282;22.494;2022-12-24T07:09:35;98300.41;;;2.13;99.43
75650;BME280;64245;51.282;22.494;2022-12-24T07:12:01;98301.13;;;2.03;99.89
75650;BME280;64245;51.282;22.494;2022-12-24T07:14:27;98321.66;;;2.13;99.91
75650;BME280;64245;51.282;22.494;2022-12-24T07:16:53;98301.34;;;2.00;99.71
75650;BME280;64245;51.282;22.494;2022-12-24T07:19:19;98307.53;;;2.01;100.00
75650;BME280;64245;51.282;22.494;2022-12-24T07:21:45;98323.63;;;2.11;100.00
75650;BME280;64245;51.282;22.494;2022-12-24T07:24:11;98310.03;;;1.91;100.00
75650;BME280;64245;51.282;22.494;2022-12-24T07:26:37;98335.25;;;2.32;100.00
75650;BME280;64245;51.282;22.494;2022-12-24T07:29:03;98328.72;;;2.25;100.00
75650;BME280;64245;51.282;22.494;2022-12-24T07:31:29;98319.38;;;2.08;100.00
75650;BME280;64245;51.282;22.494;2022-12-24T07:33:54;98331.78;;;2.42;100.00
75650;BME280;64245;51.282;22.494;2022-12-24T07:36:20;98325.84;;;2.28;100.00
75650;BME280;64245;51.282;22.494;2022-12-24T07:38:47;98330.00;;;2.54;99.66
75650;BME280;64245;51.282;22.494;2022-12-24T07:41:13;98337.31;;;2.28;99.00
75650;BME280;64245;51.282;22.494;2022-12-24T07:43:39;98340.50;;;2.45;99.58
75650;BME280;64245;51.282;22.494;2022-12-24T07:46:05;98344.44;;;2.28;99.80
75650;BME280;64245;51.282;22.494;2022-12-24T07:48:31;98340.09;;;2.27;99.86
75650;BME280;64245;51.282;22.494;2022-12-24T07:50:58;98332.22;;;2.25;100.00
75650;BME280;64245;51.282;22.494;2022-12-24T07:53:25;98349.09;;;2.48;99.52
75650;BME280;64245;51.282;22.494;2022-12-24T07:55:52;98347.13;;;2.39;99.22
75650;BME280;64245;51.282;22.494;2022-12-24T07:58:18;98349.53;;;2.31;99.10
75650;BME280;64245;51.282;22.494;2022-12-24T08:00:44;98349.44;;;2.08;99.46
75650;BME280;64245;51.282;22.494;2022-12-24T08:03:17;98357.41;;;2.08;100.00
75650;BME280;64245;51.282;22.494;2022-12-24T08:05:44;98325.97;;;2.26;100.00
75650;BME280;64245;51.282;22.494;2022-12-24T08:08:10;98330.03;;;2.19;100.00
75650;BME280;64245;51.282;22.494;2022-12-24T08:10:40;98355.47;;;2.46;100.00
75650;BME280;64245;51.282;22.494;2022-12-24T08:13:06;98360.06;;;2.55;99.64
75650;BME280;64245;51.282;22.494;2022-12-24T08:15:32;98367.69;;;2.48;99.21
75650;BME280;64245;51.282;22.494;2022-12-24T08:17:58;98352.88;;;2.33;99.94
75650;BME280;64245;51.282;22.494;2022-12-24T08:20:24;98358.72;;;2.38;99.77
75650;BME280;64245;51.282;22.494;2022-12-24T08:22:50;98358.97;;;2.46;99.66
75650;BME280;64245;51.282;22.494;2022-12-24T08:25:16;98364.06;;;2.49;99.86
75650;BME280;64245;51.282;22.494;2022-12-24T08:27:41;98361.88;;;2.54;99.67
75650;BME280;64245;51.282;22.494;2022-12-24T08:30:07;98352.81;;;2.46;100.00
75650;BME280;64245;51.282;22.494;2022-12-24T08:32:33;98349.09;;;2.48;100.00
75650;BME280;64245;51.282;22.494;2022-12-24T08:34:59;98350.59;;;2.28;100.00
75650;BME280;64245;51.282;22.494;2022-12-24T08:37:25;98358.38;;;2.42;100.00
75650;BME280;64245;51.282;22.494;2022-12-24T08:39:50;98361.63;;;2.46;99.93
75650;BME280;64245;51.282;22.494;2022-12-24T08:42:16;98376.69;;;2.81;99.65
75650;BME280;64245;51.282;22.494;2022-12-24T08:44:42;98363.63;;;2.66;99.98
75650;BME280;64245;51.282;22.494;2022-12-24T08:47:07;98354.91;;;2.64;99.91
75650;BME280;64245;51.282;22.494;2022-12-24T08:49:33;98358.59;;;2.51;100.00
75650;BME280;64245;51.282;22.494;2022-12-24T08:51:59;98361.03;;;2.54;100.00
75650;BME280;64245;51.282;22.494;2022-12-24T08:54:25;98362.78;;;2.66;100.00
75650;BME280;64245;51.282;22.494;2022-12-24T08:56:50;98361.53;;;2.59;100.00
75650;BME280;64245;51.282;22.494;2022-12-24T08:59:16;98351.28;;;2.65;100.00
75650;BME280;64245;51.282;22.494;2022-12-24T09:01:42;98356.63;;;2.76;100.00
75650;BME280;64245;51.282;22.494;2022-12-24T09:04:08;98380.09;;;2.94;100.00
75650;BME280;64245;51.282;22.494;2022-12-24T09:06:34;98349.03;;;2.83;100.00
75650;BME280;64245;51.282;22.494;2022-12-24T09:09:02;98353.25;;;3.08;100.00
75650;BME280;64245;51.282;22.494;2022-12-24T09:11:28;98355.31;;;3.04;99.43
75650;BME280;64245;51.282;22.494;2022-12-24T09:13:54;98353.97;;;2.99;99.60
75650;BME280;64245;51.282;22.494;2022-12-24T09:16:19;98344.31;;;2.98;98.93
75650;BME280;64245;51.282;22.494;2022-12-24T09:18:46;98364.72;;;3.08;98.89
75650;BME280;64245;51.282;22.494;2022-12-24T09:21:14;98364.88;;;3.07;99.13
75650;BME280;64245;51.282;22.494;2022-12-24T09:23:42;98369.47;;;3.16;99.25
75650;BME280;64245;51.282;22.494;2022-12-24T09:26:11;98359.69;;;3.05;99.11
75650;BME280;64245;51.282;22.494;2022-12-24T09:28:38;98362.31;;;3.17;99.28
75650;BME280;64245;51.282;22.494;2022-12-24T09:31:04;98372.84;;;3.29;98.73
75650;BME280;64245;51.282;22.494;2022-12-24T09:33:33;98376.59;;;3.38;98.11
75650;BME280;64245;51.282;22.494;2022-12-24T09:35:59;98369.69;;;3.58;97.88
75650;BME280;64245;51.282;22.494;2022-12-24T09:38:25;98390.06;;;3.91;97.00
75650;BME280;64245;51.282;22.494;2022-12-24T09:40:52;98387.72;;;3.54;96.73
75650;BME280;64245;51.282;22.494;2022-12-24T09:43:22;98383.97;;;3.57;97.22
75650;BME280;64245;51.282;22.494;2022-12-24T09:46:00;98382.97;;;3.46;97.84
75650;BME280;64245;51.282;22.494;2022-12-24T09:48:33;98385.66;;;3.46;98.09
75650;BME280;64245;51.282;22.494;2022-12-24T09:51:09;98367.38;;;3.53;97.94
75650;BME280;64245;51.282;22.494;2022-12-24T09:53:39;98374.03;;;3.59;97.48
75650;BME280;64245;51.282;22.494;2022-12-24T09:56:17;98382.19;;;4.00;96.25
75650;BME280;64245;51.282;22.494;2022-12-24T09:58:54;98393.84;;;3.77;96.44
75650;BME280;64245;51.282;22.494;2022-12-24T10:01:22;98395.91;;;3.85;97.11
75650;BME280;64245;51.282;22.494;2022-12-24T10:03:48;98383.03;;;3.90;96.78
75650;BME280;64245;51.282;22.494;2022-12-24T10:06:20;98381.94;;;3.92;96.07
75650;BME280;64245;51.282;22.494;2022-12-24T10:08:58;98403.63;;;3.99;96.33
75650;BME280;64245;51.282;22.494;2022-12-24T10:11:55;98375.25;;;3.55;96.49
75650;BME280;64245;51.282;22.494;2022-12-24T10:17:40;98404.88;;;3.72;97.14
75650;BME280;64245;51.282;22.494;2022-12-24T10:20:57;98408.75;;;3.68;97.17
75650;BME280;64245;51.282;22.494;2022-12-24T10:23:34;98415.50;;;3.84;97.24
75650;BME280;64245;51.282;22.494;2022-12-24T10:28:51;98417.19;;;3.96;96.67
75650;BME280;64245;51.282;22.494;2022-12-24T10:31:24;98416.00;;;3.77;96.08
75650;BME280;64245;51.282;22.494;2022-12-24T10:34:18;98411.50;;;3.89;96.85
75650;BME280;64245;51.282;22.494;2022-12-24T10:36:46;98401.00;;;3.76;97.03
75650;BME280;64245;51.282;22.494;2022-12-24T10:39:18;98412.97;;;3.82;96.77
75650;BME280;64245;51.282;22.494;2022-12-24T10:41:47;98421.44;;;3.76;96.73
75650;BME280;64245;51.282;22.494;2022-12-24T10:44:18;98408.66;;;3.59;97.23
75650;BME280;64245;51.282;22.494;2022-12-24T10:46:46;98407.44;;;3.63;97.19
75650;BME280;64245;51.282;22.494;2022-12-24T10:49:38;98415.84;;;3.90;97.19
75650;BME280;64245;51.282;22.494;2022-12-24T10:52:16;98411.78;;;4.18;96.24
75650;BME280;64245;51.282;22.494;2022-12-24T10:57:36;98409.38;;;4.15;94.24
75650;BME280;64245;51.282;22.494;2022-12-24T11:00:03;98415.88;;;3.68;94.96
75650;BME280;64245;51.282;22.494;2022-12-24T11:02:36;98405.03;;;3.37;96.07
75650;BME280;64245;51.282;22.494;2022-12-24T11:05:09;98421.38;;;3.44;96.29
75650;BME280;64245;51.282;22.494;2022-12-24T11:08:14;98410.47;;;3.25;97.39
75650;BME280;64245;51.282;22.494;2022-12-24T11:10:43;98424.81;;;3.11;97.52
75650;BME280;64245;51.282;22.494;2022-12-24T11:16:09;98430.59;;;2.94;97.97
75650;BME280;64245;51.282;22.494;2022-12-24T11:18:46;98431.81;;;2.90;98.85
75650;BME280;64245;51.282;22.494;2022-12-24T11:21:21;98435.44;;;2.89;98.91
75650;BME280;64245;51.282;22.494;2022-12-24T11:23:50;98425.69;;;3.00;99.14
75650;BME280;64245;51.282;22.494;2022-12-24T11:26:21;98428.56;;;3.08;99.30
75650;BME280;64245;51.282;22.494;2022-12-24T11:29:14;98449.78;;;3.55;98.94
75650;BME280;64245;51.282;22.494;2022-12-24T11:31:44;98451.84;;;3.62;98.45
75650;BME280;64245;51.282;22.494;2022-12-24T11:34:21;98439.59;;;3.48;97.79
75650;BME280;64245;51.282;22.494;2022-12-24T11:36:49;98442.75;;;3.31;97.26
75650;BME280;64245;51.282;22.494;2022-12-24T11:39:21;98447.09;;;3.32;98.16
75650;BME280;64245;51.282;22.494;2022-12-24T11:41:48;98427.41;;;3.24;97.93
75650;BME280;64245;51.282;22.494;2022-12-24T11:44:23;98446.38;;;3.53;98.00
75650;BME280;64245;51.282;22.494;2022-12-24T11:46:49;98444.59;;;3.64;97.13
75650;BME280;64245;51.282;22.494;2022-12-24T11:49:31;98437.91;;;3.47;97.32
75650;BME280;64245;51.282;22.494;2022-12-24T11:54:44;98452.19;;;3.35;97.42
75650;BME280;64245;51.282;22.494;2022-12-24T11:57:15;98451.09;;;3.49;97.07
75650;BME280;64245;51.282;22.494;2022-12-24T11:59:45;98433.56;;;3.46;97.57
75650;BME280;64245;51.282;22.494;2022-12-24T12:04:45;98433.44;;;3.48;97.21
75650;BME280;64245;51.282;22.494;2022-12-24T12:07:20;98437.06;;;3.69;96.67
75650;BME280;64245;51.282;22.494;2022-12-24T12:10:03;98460.88;;;3.93;95.91
75650;BME280;64245;51.282;22.494;2022-12-24T12:12:33;98464.19;;;3.63;96.40
75650;BME280;64245;51.282;22.494;2022-12-24T12:15:05;98453.41;;;3.76;96.95
75650;BME280;64245;51.282;22.494;2022-12-24T12:20:22;98474.34;;;3.69;96.65
75650;BME280;64245;51.282;22.494;2022-12-24T12:23:11;98478.94;;;3.45;96.58
75650;BME280;64245;51.282;22.494;2022-12-24T12:25:53;98481.13;;;3.40;97.60
75650;BME280;64245;51.282;22.494;2022-12-24T12:28:22;98470.81;;;3.35;98.04
75650;BME280;64245;51.282;22.494;2022-12-24T12:31:10;98487.38;;;3.28;97.86
75650;BME280;64245;51.282;22.494;2022-12-24T12:33:56;98492.09;;;3.24;98.02
75650;BME280;64245;51.282;22.494;2022-12-24T12:36:30;98498.50;;;3.22;98.03
75650;BME280;64245;51.282;22.494;2022-12-24T12:38:58;98494.63;;;3.15;98.17
75650;BME280;64245;51.282;22.494;2022-12-24T12:41:45;98498.84;;;3.17;98.36
75650;BME280;64245;51.282;22.494;2022-12-24T12:49:51;98521.72;;;3.31;97.49
75650;BME280;64245;51.282;22.494;2022-12-24T12:52:43;98518.25;;;2.95;98.51
75650;BME280;64245;51.282;22.494;2022-12-24T12:55:34;98540.28;;;2.97;99.23
75650;BME280;64245;51.282;22.494;2022-12-24T12:58:08;98520.38;;;2.79;98.67
75650;BME280;64245;51.282;22.494;2022-12-24T13:00:39;98533.78;;;2.77;99.12
75650;BME280;64245;51.282;22.494;2022-12-24T13:15:06;98571.44;;;2.95;98.75
75650;BME280;64245;51.282;22.494;2022-12-24T13:20:35;98556.22;;;2.73;99.46
75650;BME280;64245;51.282;22.494;2022-12-24T13:25:41;98578.56;;;3.30;98.29
75650;BME280;64245;51.282;22.494;2022-12-24T13:30:51;98565.59;;;3.14;98.08
75650;BME280;64245;51.282;22.494;2022-12-24T13:36:07;98587.47;;;3.53;96.60
75650;BME280;64245;51.282;22.494;2022-12-24T13:38:50;98580.66;;;3.37;97.31
75650;BME280;64245;51.282;22.494;2022-12-24T13:41:37;98591.28;;;3.26;97.15
75650;BME280;64245;51.282;22.494;2022-12-24T13:49:17;98590.38;;;3.15;98.01
75650;BME280;64245;51.282;22.494;2022-12-24T13:51:44;98581.22;;;3.19;97.49
75650;BME280;64245;51.282;22.494;2022-12-24T13:54:12;98583.88;;;3.19;97.24
75650;BME280;64245;51.282;22.494;2022-12-24T13:56:40;98591.69;;;3.09;97.44
75650;BME280;64245;51.282;22.494;2022-12-24T13:59:20;98600.03;;;2.81;97.74
75650;BME280;64245;51.282;22.494;2022-12-24T14:01:48;98605.06;;;2.72;98.77
75650;BME280;64245;51.282;22.494;2022-12-24T14:04:23;98607.59;;;2.50;98.61
75650;BME280;64245;51.282;22.494;2022-12-24T14:06:51;98638.50;;;2.51;99.26
75650;BME280;64245;51.282;22.494;2022-12-24T14:09:21;98635.56;;;2.43;99.16
75650;BME280;64245;51.282;22.494;2022-12-24T14:14:25;98655.28;;;2.64;99.67
75650;BME280;64245;51.282;22.494;2022-12-24T14:16:54;98631.56;;;2.61;99.49
75650;BME280;64245;51.282;22.494;2022-12-24T14:19:40;98644.50;;;3.02;98.44
75650;BME280;64245;51.282;22.494;2022-12-24T14:22:32;98659.56;;;3.15;97.54